Time;durP1;ratioP1;P1;durP2;ratioP2;P2;SDS_P1;SDS_P2;PMS_P1;PMS_P2;Temp;Humidity;BMP_temperature;BMP_pressure;BME280_temperature;BME280_humidity;BME280_pressure;Samples;Min_cycle;Max_cycle;Signal;HPM_P1;HPM_P2
2022/01/16 21:14:57;;;;;;;;;;;;;;;;;;5016106;23;20147;-61
2022/01/16 21:17:23;;;;;;;125.80;62.47;;;;;;;;;;4933549;29;19911;-60
2022/01/16 21:19:49;;;;;;;123.80;64.22;;;;;;;;;;4934595;29;20046;-61
2022/01/16 21:22:16;;;;;;;127.55;64.68;;;;;;;;;;4934420;29;20031;-61
2022/01/16 21:24:46;;;;;;;124.05;64.65;;;;;;;;;;4934225;29;20054;-64
2022/01/16 21:27:12;;;;;;;129.02;65.30;;;;;;;;;;4916629;29;20504;-64
2022/01/16 21:29:45;;;;;;;136.25;71.30;;;;;;;;;;4934380;29;20594;-63
2022/01/16 21:32:13;;;;;;;139.40;70.32;;;;;;;;;;4934273;29;20102;-63
2022/01/16 21:34:43;;;;;;;135.30;69.85;;;;;;;;;;4916578;29;20460;-62
2022/01/16 21:37:10;;;;;;;132.98;68.85;;;;;;;;;;4933774;29;20024;-62
2022/01/16 21:39:38;;;;;;;124.50;67.25;;;;;;;;;;4933802;29;20032;-62
2022/01/16 21:42:04;;;;;;;122.70;67.28;;;;;;;;;;4934214;29;20054;-62
2022/01/16 21:44:30;;;;;;;128.52;65.93;;;;;;;;;;4933830;29;20036;-63
2022/01/16 21:46:57;;;;;;;118.55;66.43;;;;;;;;;;4934052;29;20023;-62
2022/01/16 21:49:23;;;;;;;131.70;69.72;;;;;;;;;;4916220;29;20035;-63
2022/01/16 21:51:49;;;;;;;137.15;73.97;;;;;;;;;;4933081;29;20024;-63
2022/01/16 21:54:17;;;;;;;137.73;74.70;;;;;;;;;;4933370;29;20067;-63
2022/01/16 21:56:43;;;;;;;154.63;79.75;;;;;;;;;;4933895;29;20515;-63
2022/01/16 21:59:09;;;;;;;150.55;81.28;;;;;;;;;;4933755;29;20106;-63
2022/01/16 22:01:36;;;;;;;144.43;77.65;;;;;;;;;;4934006;29;20027;-62
2022/01/16 22:04:02;;;;;;;149.40;79.63;;;;;;;;;;4933495;29;20511;-62
2022/01/16 22:06:28;;;;;;;146.65;78.05;;;;;;;;;;4933789;29;20034;-64
2022/01/16 22:08:54;;;;;;;131.57;72.07;;;;;;;;;;4933893;29;20036;-63
2022/01/16 22:11:23;;;;;;;137.30;71.95;;;;;;;;;;4933722;29;20052;-63
2022/01/16 22:13:52;;;;;;;137.85;73.32;;;;;;;;;;4933306;29;20043;-63
2022/01/16 22:16:18;;;;;;;131.15;70.18;;;;;;;;;;4932949;29;20071;-62
2022/01/16 22:18:44;;;;;;;129.18;68.15;;;;;;;;;;4933146;29;20039;-62
2022/01/16 22:21:11;;;;;;;129.82;70.50;;;;;;;;;;4933507;29;20028;-62
2022/01/16 22:23:40;;;;;;;144.82;77.20;;;;;;;;;;4915896;29;20036;-62
2022/01/16 22:26:07;;;;;;;152.75;82.95;;;;;;;;;;4933414;29;20063;-63
2022/01/16 22:28:35;;;;;;;159.60;83.05;;;;;;;;;;4933501;29;20468;-61
2022/01/16 22:31:03;;;;;;;157.23;83.07;;;;;;;;;;4933220;29;20477;-62
2022/01/16 22:33:29;;;;;;;154.45;81.05;;;;;;;;;;4933555;29;20042;-63
2022/01/16 22:35:55;;;;;;;171.80;86.95;;;;;;;;;;4933708;29;20533;-63
2022/01/16 22:38:21;;;;;;;162.00;83.72;;;;;;;;;;4933514;29;20031;-62
2022/01/16 22:40:49;;;;;;;171.80;89.15;;;;;;;;;;4933396;29;20023;-62
2022/01/16 22:43:15;;;;;;;166.75;86.68;;;;;;;;;;4928215;29;20468;-62
2022/01/16 22:45:41;;;;;;;167.82;87.65;;;;;;;;;;4906847;29;20040;-63
2022/01/16 22:48:08;;;;;;;171.00;88.70;;;;;;;;;;4922256;29;20020;-62
2022/01/16 22:50:34;;;;;;;162.27;82.88;;;;;;;;;;4923517;29;20032;-63
2022/01/16 22:53:01;;;;;;;157.85;80.70;;;;;;;;;;4921971;29;20025;-63
2022/01/16 22:55:27;;;;;;;146.65;76.82;;;;;;;;;;4922114;29;20023;-63
2022/01/16 22:57:54;;;;;;;154.02;79.65;;;;;;;;;;4923613;29;20030;-62
2022/01/16 23:00:25;;;;;;;159.90;85.22;;;;;;;;;;4921690;29;20168;-63
2022/01/16 23:02:51;;;;;;;181.63;93.18;;;;;;;;;;4932249;29;20058;-62
2022/01/16 23:05:17;;;;;;;177.57;93.47;;;;;;;;;;4937436;29;20039;-63
2022/01/16 23:07:44;;;;;;;188.55;99.25;;;;;;;;;;4936710;29;20031;-62
2022/01/16 23:10:10;;;;;;;216.13;104.43;;;;;;;;;;4936621;29;20036;-62
2022/01/16 23:12:36;;;;;;;230.77;113.03;;;;;;;;;;4936639;29;20032;-63
2022/01/16 23:15:03;;;;;;;214.77;104.15;;;;;;;;;;4936621;29;20523;-62
2022/01/16 23:17:29;;;;;;;220.55;106.45;;;;;;;;;;4936806;29;20436;-62
2022/01/16 23:19:55;;;;;;;217.63;109.28;;;;;;;;;;4935512;29;20151;-62
2022/01/16 23:22:22;;;;;;;216.10;108.93;;;;;;;;;;4937156;29;20031;-62
2022/01/16 23:24:52;;;;;;;262.35;128.05;;;;;;;;;;4936690;29;20642;-63
2022/01/16 23:27:18;;;;;;;262.25;126.88;;;;;;;;;;4936390;29;20431;-61
2022/01/16 23:29:44;;;;;;;240.50;115.53;;;;;;;;;;4936297;29;20036;-63
2022/01/16 23:32:13;;;;;;;225.38;111.55;;;;;;;;;;4936632;29;20020;-63
2022/01/16 23:34:39;;;;;;;212.93;107.60;;;;;;;;;;4936419;29;20066;-62
2022/01/16 23:37:05;;;;;;;171.20;91.88;;;;;;;;;;4918963;29;20031;-62
2022/01/16 23:39:31;;;;;;;177.95;89.25;;;;;;;;;;4936344;29;20103;-62
2022/01/16 23:41:57;;;;;;;165.80;86.60;;;;;;;;;;4936550;29;20028;-63
2022/01/16 23:44:27;;;;;;;170.57;84.80;;;;;;;;;;4936447;29;20387;-62
2022/01/16 23:46:55;;;;;;;153.85;79.72;;;;;;;;;;4918976;29;20103;-63
2022/01/16 23:49:22;;;;;;;152.38;79.70;;;;;;;;;;4935930;29;20031;-62
2022/01/16 23:51:48;;;;;;;156.10;80.43;;;;;;;;;;4936364;29;20032;-62
2022/01/16 23:54:14;;;;;;;161.48;81.05;;;;;;;;;;4936326;29;20071;-62
